Time;durP1;ratioP1;P1;durP2;ratioP2;P2;SDS_P1;SDS_P2;PMS_P1;PMS_P2;Temp;Humidity;BMP_temperature;BMP_pressure;BME280_temperature;BME280_humidity;BME280_pressure;Samples;Min_cycle;Max_cycle;Signal;HPM_P1;HPM_P2
2022/10/05 00:01:27;;;;;;;8.43;4.15;;;;;;;7.30;100.00;99077.34;2630145;28;20441;-82
2022/10/05 00:02:43;;;;;;;8.23;4.05;;;;;;;7.32;100.00;99065.16;2632859;28;20048;-83
2022/10/05 00:04:23;;;;;;;5.22;3.47;;;;;;;7.23;100.00;99066.06;2631888;28;20188;-84
2022/10/05 00:05:39;;;;;;;7.25;3.80;;;;;;;7.19;100.00;99065.22;2633465;28;20052;-82
2022/10/05 00:07:01;;;;;;;5.57;3.72;;;;;;;7.26;100.00;99063.44;2629919;28;20047;-85
2022/10/05 00:08:23;;;;;;;7.05;3.70;;;;;;;7.09;100.00;99063.50;2630972;28;20151;-82
2022/10/05 00:09:38;;;;;;;7.20;4.03;;;;;;;7.17;100.00;99055.66;2631889;28;20409;-83
2022/10/05 00:10:54;;;;;;;5.90;3.92;;;;;;;7.14;100.00;99055.69;2631449;28;20083;-83
2022/10/05 00:12:16;;;;;;;7.88;3.80;;;;;;;7.15;100.00;99049.59;2631644;28;20108;-83
2022/10/05 00:13:32;;;;;;;7.47;4.45;;;;;;;7.20;100.00;99040.06;2632080;28;20058;-82
2022/10/05 00:14:54;;;;;;;9.95;4.00;;;;;;;7.16;100.00;99049.59;2635011;28;20048;-82
2022/10/05 00:16:09;;;;;;;6.88;4.30;;;;;;;7.20;100.00;99033.09;2633369;28;20044;-83
2022/10/05 00:17:27;;;;;;;8.18;4.15;;;;;;;7.28;100.00;99042.63;2634997;28;20044;-82
2022/10/05 00:18:49;;;;;;;12.43;4.47;;;;;;;7.31;100.00;99038.22;2623840;28;20071;-84
2022/10/05 00:20:24;;;;;;;40.95;6.90;;;;;;;7.29;100.00;99037.38;2626758;28;20051;-83
2022/10/05 00:21:39;;;;;;;31.77;6.40;;;;;;;7.32;100.00;99044.31;2632430;28;20063;-83
2022/10/05 00:22:59;;;;;;;13.95;5.63;;;;;;;7.29;100.00;99039.13;2634247;28;20402;-83
2022/10/05 00:24:18;;;;;;;20.58;6.50;;;;;;;7.20;100.00;99042.66;2634004;28;20070;-84
2022/10/05 00:25:33;;;;;;;13.70;5.95;;;;;;;7.15;100.00;99037.47;2635151;28;20082;-83
2022/10/05 00:26:49;;;;;;;17.63;6.38;;;;;;;7.04;100.00;99034.03;2634770;28;20052;-83
2022/10/05 00:28:15;;;;;;;11.40;5.68;;;;;;;7.12;100.00;99034.84;2633042;28;20043;-84
2022/10/05 00:29:33;;;;;;;19.30;6.63;;;;;;;6.92;100.00;99040.16;2632830;28;20486;-82
2022/10/05 00:30:48;;;;;;;24.65;6.80;;;;;;;7.14;100.00;99035.72;2633958;28;20094;-84
2022/10/05 00:32:04;;;;;;;22.83;6.15;;;;;;;7.18;100.00;99033.97;2633698;28;20078;-83
2022/10/05 00:33:20;;;;;;;22.77;6.97;;;;;;;7.09;100.00;99034.03;2633126;28;20395;-82
2022/10/05 00:34:36;;;;;;;23.77;6.93;;;;;;;7.11;100.00;99027.91;2634233;28;20055;-82
2022/10/05 00:35:51;;;;;;;27.98;7.10;;;;;;;7.06;100.00;99032.28;2633396;28;20161;-82
2022/10/05 00:37:07;;;;;;;31.00;6.82;;;;;;;7.09;100.00;99032.25;2634640;28;20051;-82
2022/10/05 00:38:23;;;;;;;13.73;6.00;;;;;;;7.11;100.00;99033.13;2633465;28;20044;-83
2022/10/05 00:39:40;;;;;;;11.13;5.70;;;;;;;7.00;100.00;99032.31;2632682;28;20406;-83
2022/10/05 00:41:17;;;;;;;25.23;6.20;;;;;;;7.07;100.00;99031.41;2632803;28;20138;-82
2022/10/05 00:42:55;;;;;;;14.45;6.25;;;;;;;7.06;100.00;99030.56;2632609;28;20071;-82
2022/10/05 00:44:32;;;;;;;18.88;6.85;;;;;;;6.87;100.00;99019.34;2631492;28;20517;-83
2022/10/05 00:45:55;;;;;;;14.63;6.28;;;;;;;6.96;100.00;99017.56;2633997;28;20570;-83
2022/10/05 00:47:22;;;;;;;12.43;5.93;;;;;;;6.86;100.00;99016.75;2632399;28;20689;-83
2022/10/05 00:48:47;;;;;;;15.55;6.20;;;;;;;6.90;100.00;99011.53;2634694;28;20091;-83
2022/10/05 00:50:13;;;;;;;20.00;6.13;;;;;;;6.85;100.00;99017.59;2632467;28;20098;-82
2022/10/05 00:51:35;;;;;;;27.38;6.45;;;;;;;6.82;100.00;99015.88;2632483;28;20079;-83
2022/10/05 00:53:05;;;;;;;45.90;7.05;;;;;;;6.82;100.00;99009.81;2634356;28;20437;-83
2022/10/05 00:54:35;;;;;;;14.95;6.30;;;;;;;6.92;100.00;99007.16;2634214;28;20844;-83
2022/10/05 00:56:21;;;;;;;64.07;7.95;;;;;;;6.85;100.00;99002.88;2633063;28;20716;-84
2022/10/05 00:58:10;;;;;;;80.90;8.02;;;;;;;6.81;100.00;99003.75;2632770;28;20089;-82
2022/10/05 00:59:41;;;;;;;24.45;7.22;;;;;;;6.67;100.00;99002.91;2634808;28;20043;-83
2022/10/05 01:01:02;;;;;;;91.22;8.85;;;;;;;6.78;100.00;98995.94;2631891;28;20459;-82
2022/10/05 01:02:23;;;;;;;35.77;7.17;;;;;;;6.39;100.00;98998.66;2632035;28;20123;-82
2022/10/05 01:04:19;;;;;;;70.65;9.07;;;;;;;6.61;100.00;99003.78;2633828;28;21031;-82
2022/10/05 01:05:44;;;;;;;23.23;6.80;;;;;;;6.63;100.00;99005.53;2631689;28;20048;-82
2022/10/05 01:07:35;;;;;;;25.33;6.43;;;;;;;6.70;100.00;98993.38;2634147;28;20051;-83
2022/10/05 01:09:12;;;;;;;15.40;5.75;;;;;;;6.73;100.00;98998.56;2632086;28;20078;-83
2022/10/05 01:10:31;;;;;;;18.95;6.38;;;;;;;6.89;100.00;98999.38;2634733;28;20500;-84
2022/10/05 01:12:36;;;;;;;31.45;7.97;;;;;;;7.00;100.00;98995.88;2633678;28;20504;-84
2022/10/05 01:14:13;;;;;;;36.28;8.02;;;;;;;6.98;100.00;99000.19;2598805;28;20180;-82
2022/10/05 01:15:41;;;;;;;65.60;9.88;;;;;;;7.04;100.00;99001.03;2631389;28;20410;-84
2022/10/05 01:17:18;;;;;;;56.22;9.20;;;;;;;6.93;100.00;98998.47;2631714;28;20498;-83
2022/10/05 01:18:45;;;;;;;130.25;12.88;;;;;;;7.05;100.00;98994.09;2631072;28;20059;-83
2022/10/05 01:20:18;;;;;;;64.40;9.25;;;;;;;7.10;100.00;98992.31;2633939;28;20054;-83
2022/10/05 01:21:41;;;;;;;58.75;10.00;;;;;;;7.20;100.00;98998.38;2633549;28;20055;-83
2022/10/05 01:23:16;;;;;;;99.20;11.20;;;;;;;7.15;100.00;98993.19;2632788;28;20043;-85
2022/10/05 01:24:50;;;;;;;75.70;11.85;;;;;;;7.17;100.00;98996.66;2631478;28;20101;-83
2022/10/05 01:26:21;;;;;;;39.55;8.95;;;;;;;7.22;100.00;98991.41;2633277;28;20142;-83
2022/10/05 01:27:48;;;;;;;128.75;12.02;;;;;;;7.28;100.00;98990.53;2633806;28;20055;-84
2022/10/05 01:29:41;;;;;;;38.40;9.10;;;;;;;7.27;100.00;98988.78;2632120;28;20077;-83
2022/10/05 01:31:24;;;;;;;78.43;10.70;;;;;;;7.30;100.00;98991.38;2628719;28;20048;-82
2022/10/05 01:33:07;;;;;;;52.10;8.38;;;;;;;7.32;100.00;98977.44;2631932;28;20391;-82
2022/10/05 01:34:47;;;;;;;30.80;8.13;;;;;;;7.46;100.00;98976.50;2632798;28;20052;-83
2022/10/05 01:36:18;;;;;;;109.60;11.23;;;;;;;7.51;100.00;98976.47;2634433;28;20052;-87
2022/10/05 01:37:55;;;;;;;28.52;8.52;;;;;;;7.33;100.00;98976.59;2631709;28;20089;-87
2022/10/05 01:39:21;;;;;;;58.75;9.60;;;;;;;7.43;100.00;98973.91;2631002;28;20091;-83
2022/10/05 01:40:55;;;;;;;25.85;7.90;;;;;;;7.17;100.00;98970.59;2632890;28;20044;-82
2022/10/05 01:42:30;;;;;;;26.30;8.27;;;;;;;6.88;100.00;98982.03;2632675;28;20055;-83
2022/10/05 01:43:51;;;;;;;56.83;8.77;;;;;;;7.11;100.00;98978.44;2633586;28;20052;-83
2022/10/05 01:45:21;;;;;;;49.88;8.68;;;;;;;7.11;100.00;98981.03;2630576;28;20497;-83
2022/10/05 01:46:44;;;;;;;49.92;8.10;;;;;;;7.24;100.00;98980.97;2632340;28;20051;-83
2022/10/05 01:48:24;;;;;;;41.03;8.77;;;;;;;7.27;100.00;98984.44;2631291;28;20452;-85
2022/10/05 01:49:46;;;;;;;34.35;7.22;;;;;;;7.13;100.00;98981.91;2631023;28;20043;-82
2022/10/05 01:51:43;;;;;;;23.60;8.23;;;;;;;7.09;100.00;98988.00;2632436;28;20048;-87
2022/10/05 01:53:02;;;;;;;37.40;7.78;;;;;;;7.19;100.00;98987.09;2621729;28;20107;-82
2022/10/05 01:54:32;;;;;;;54.35;10.35;;;;;;;7.18;100.00;98989.69;2626385;28;20048;-83
2022/10/05 01:56:11;;;;;;;35.83;8.27;;;;;;;7.06;100.00;98982.81;2631517;28;20063;-82
2022/10/05 01:57:35;;;;;;;64.95;10.38;;;;;;;7.08;100.00;98988.88;2631082;28;20052;-86
2022/10/05 01:59:10;;;;;;;57.97;11.85;;;;;;;7.00;100.00;98990.66;2632637;28;20051;-85
2022/10/05 02:00:27;;;;;;;40.83;9.35;;;;;;;7.00;100.00;98988.06;2634626;28;20044;-83
2022/10/05 02:02:10;;;;;;;52.22;10.90;;;;;;;7.04;100.00;98989.78;2631310;28;20475;-83
2022/10/05 02:03:34;;;;;;;56.50;9.10;;;;;;;6.95;100.00;98992.41;2631427;28;20058;-84
2022/10/05 02:04:52;;;;;;;56.83;9.70;;;;;;;6.93;100.00;98989.81;2633775;28;20084;-83
2022/10/05 02:06:25;;;;;;;51.75;9.68;;;;;;;6.86;100.00;98999.41;2631592;28;20044;-84
2022/10/05 02:07:48;;;;;;;42.60;9.27;;;;;;;6.93;100.00;98990.69;2632257;28;20052;-83
2022/10/05 02:09:27;;;;;;;35.83;9.23;;;;;;;7.05;100.00;98999.31;2632580;28;20051;-83
2022/10/05 02:10:58;;;;;;;41.67;8.55;;;;;;;7.18;100.00;99002.72;2631893;28;20085;-83
2022/10/05 02:12:18;;;;;;;67.63;9.18;;;;;;;7.08;100.00;99001.88;2632074;28;20051;-84
2022/10/05 02:13:46;;;;;;;52.50;8.82;;;;;;;6.90;100.00;99001.09;2633192;28;20048;-83
2022/10/05 02:15:18;;;;;;;62.33;8.43;;;;;;;6.75;100.00;99001.16;2630859;28;20048;-83
2022/10/05 02:16:36;;;;;;;63.35;10.00;;;;;;;6.73;100.00;99006.38;2632205;28;20497;-85
2022/10/05 02:18:02;;;;;;;43.90;8.98;;;;;;;6.87;100.00;99001.13;2630667;28;20040;-84
2022/10/05 02:19:38;;;;;;;56.17;9.18;;;;;;;6.97;100.00;99001.06;2631450;28;20051;-87
2022/10/05 02:20:55;;;;;;;64.68;8.82;;;;;;;6.80;100.00;99007.22;2630865;28;20088;-83
2022/10/05 02:22:20;;;;;;;108.20;8.98;;;;;;;7.06;100.00;99001.03;2630470;28;20052;-86
2022/10/05 02:23:39;;;;;;;76.00;8.88;;;;;;;7.17;100.00;99000.97;2621322;28;20048;-86
2022/10/05 02:25:01;;;;;;;69.32;7.85;;;;;;;7.13;100.00;99001.88;2625516;28;21234;-85
2022/10/05 02:26:18;;;;;;;58.63;7.80;;;;;;;7.06;100.00;99008.84;2630639;28;20048;-83
2022/10/05 02:27:40;;;;;;;95.70;12.60;;;;;;;6.96;100.00;99012.34;2632001;28;20487;-83
2022/10/05 02:29:08;;;;;;;111.32;10.93;;;;;;;6.83;100.00;99017.59;2631071;28;20392;-83
2022/10/05 02:30:23;;;;;;;54.58;8.02;;;;;;;6.85;100.00;99015.00;2631974;28;20258;-83
2022/10/05 02:31:45;;;;;;;83.10;10.07;;;;;;;6.76;100.00;99015.91;2631235;28;20054;-84
2022/10/05 02:33:07;;;;;;;68.53;8.48;;;;;;;6.50;100.00;99014.25;2633065;28;20556;-84
2022/10/05 02:34:37;;;;;;;37.95;7.50;;;;;;;6.56;100.00;99010.75;2633708;28;20145;-85
2022/10/05 02:35:54;;;;;;;94.72;11.38;;;;;;;6.56;100.00;99011.63;2632953;28;20062;-83
2022/10/05 02:37:34;;;;;;;57.92;7.75;;;;;;;6.63;100.00;99000.34;2630478;28;20043;-83
2022/10/05 02:39:09;;;;;;;34.80;6.80;;;;;;;6.57;100.00;98995.16;2632483;28;20048;-83
2022/10/05 02:40:38;;;;;;;39.63;6.97;;;;;;;6.68;100.00;98994.25;2631194;28;20620;-83
2022/10/05 02:42:04;;;;;;;112.88;10.25;;;;;;;6.76;100.00;98989.88;2631472;28;20650;-84
2022/10/05 02:43:43;;;;;;;80.47;9.93;;;;;;;6.79;100.00;98987.25;2630662;28;20052;-84
2022/10/05 02:45:25;;;;;;;68.60;7.32;;;;;;;6.78;100.00;98986.41;2621582;28;20681;-84
2022/10/05 02:46:43;;;;;;;83.07;9.35;;;;;;;6.90;100.00;98993.31;2630836;28;20542;-87
2022/10/05 02:48:13;;;;;;;55.25;7.50;;;;;;;6.87;100.00;98992.44;2633235;28;20399;-84
2022/10/05 02:49:41;;;;;;;54.15;7.75;;;;;;;6.69;100.00;98991.66;2632442;28;20398;-87
2022/10/05 02:51:14;;;;;;;67.47;7.55;;;;;;;6.63;100.00;98995.13;2631831;28;20060;-84
2022/10/05 02:52:58;;;;;;;52.75;7.82;;;;;;;6.63;100.00;98997.72;2632511;28;20131;-84
2022/10/05 02:54:36;;;;;;;48.33;6.18;;;;;;;6.64;100.00;98993.41;2631341;28;20185;-84
2022/10/05 02:56:22;;;;;;;27.90;6.40;;;;;;;6.71;100.00;98989.06;2630798;28;20052;-85
2022/10/05 02:57:45;;;;;;;30.42;5.75;;;;;;;6.81;100.00;98989.88;2632499;28;20047;-83
2022/10/05 02:59:14;;;;;;;44.72;5.88;;;;;;;6.84;100.00;98990.69;2630535;28;20056;-89
2022/10/05 03:00:33;;;;;;;33.47;5.43;;;;;;;6.83;100.00;98988.97;2631625;28;20066;-84
2022/10/05 03:01:59;;;;;;;44.90;6.13;;;;;;;6.78;100.00;98985.53;2632430;28;20083;-84
2022/10/05 03:03:40;;;;;;;19.55;5.05;;;;;;;6.63;100.00;98984.72;2630929;28;20052;-84
2022/10/05 03:05:15;;;;;;;39.25;6.03;;;;;;;6.62;100.00;98985.59;2632999;28;20055;-84
2022/10/05 03:06:38;;;;;;;29.05;5.50;;;;;;;6.49;100.00;98983.91;2631085;28;20056;-85
2022/10/05 03:07:56;;;;;;;;;;;;;;;6.36;100.00;98970.06;2633672;28;20126;-83
2022/10/05 03:09:16;;;;;;;15.13;5.50;;;;;;;6.54;100.00;98966.53;2630721;28;20408;-86
2022/10/05 03:11:03;;;;;;;20.90;5.95;;;;;;;6.53;100.00;98963.94;2630791;28;20509;-83
2022/10/05 03:12:34;;;;;;;28.63;6.72;;;;;;;6.56;100.00;98963.94;2633130;28;20047;-83
2022/10/05 03:14:06;;;;;;;36.72;7.38;;;;;;;6.44;100.00;98970.06;2632457;28;20492;-84
2022/10/05 03:15:36;;;;;;;37.25;7.38;;;;;;;6.18;100.00;98978.75;2633170;28;20783;-88
2022/10/05 03:17:13;;;;;;;50.65;6.97;;;;;;;6.08;100.00;98978.75;2632819;28;20091;-85
2022/10/05 03:19:16;;;;;;;17.17;5.47;;;;;;;6.10;100.00;98983.97;2633820;28;20060;-84
2022/10/05 03:21:04;;;;;;;11.10;5.20;;;;;;;6.20;100.00;98992.63;2621531;28;20501;-84
2022/10/05 03:22:53;;;;;;;10.15;5.13;;;;;;;6.10;100.00;98985.69;2578523;28;20088;-83
2022/10/05 03:24:20;;;;;;;11.75;5.75;;;;;;;6.29;100.00;98986.53;2620564;28;20048;-84
2022/10/05 03:25:42;;;;;;;16.58;5.20;;;;;;;6.34;100.00;98988.25;2630881;28;20052;-83
2022/10/05 03:27:15;;;;;;;14.15;5.07;;;;;;;6.44;100.00;98985.66;2631988;28;20048;-84
2022/10/05 03:28:58;;;;;;;23.42;5.20;;;;;;;6.44;100.00;98986.50;2632103;28;20066;-85
2022/10/05 03:30:21;;;;;;;82.70;7.90;;;;;;;6.54;100.00;98971.72;2632180;28;20047;-84
2022/10/05 03:32:17;;;;;;;17.65;3.33;;;;;;;6.48;100.00;98966.56;2631763;28;20514;-88
2022/10/05 03:33:45;;;;;;;17.67;3.35;;;;;;;6.64;100.00;98957.81;2630243;28;20054;-87
2022/10/05 03:35:25;;;;;;;25.38;3.92;;;;;;;6.69;100.00;98951.72;2632288;28;20649;-85
2022/10/05 03:36:52;;;;;;;71.22;5.60;;;;;;;6.77;100.00;98942.16;2630214;28;20056;-83
2022/10/05 03:38:35;;;;;;;59.70;5.78;;;;;;;6.61;100.00;98946.56;2630374;28;20058;-89
2022/10/05 03:40:03;;;;;;;14.60;4.25;;;;;;;6.68;100.00;98947.41;2620246;28;20254;-84
2022/10/05 03:41:40;;;;;;;12.43;4.28;;;;;;;6.57;100.00;98950.06;2628388;28;20510;-83
2022/10/05 03:43:17;;;;;;;9.05;4.43;;;;;;;6.50;100.00;98952.69;2631434;28;20400;-85
2022/10/05 03:44:47;;;;;;;18.75;5.18;;;;;;;6.51;100.00;98961.34;2631471;28;20052;-84
2022/10/05 03:46:46;;;;;;;20.92;5.18;;;;;;;6.54;100.00;98956.13;2630527;28;20044;-85
2022/10/05 03:48:13;;;;;;;12.75;4.28;;;;;;;6.15;100.00;98961.44;2611928;28;20498;-84
2022/10/05 03:49:29;;;;;;;20.95;4.18;;;;;;;6.19;100.00;98960.53;2610667;28;20349;-85
2022/10/05 03:50:54;;;;;;;24.48;4.20;;;;;;;6.23;100.00;98961.41;2627617;28;20051;-88
2022/10/05 03:52:16;;;;;;;26.92;3.88;;;;;;;6.36;100.00;98976.13;2633065;28;20836;-85
2022/10/05 03:53:46;;;;;;;41.42;4.38;;;;;;;6.01;100.00;98974.47;2635983;28;20090;-85
2022/10/05 03:55:20;;;;;;;24.58;3.55;;;;;;;5.71;100.00;98981.34;2632621;28;20057;-83
2022/10/05 03:56:40;;;;;;;23.02;3.75;;;;;;;5.83;100.00;98983.09;2632564;28;20113;-83
2022/10/05 03:58:01;;;;;;;49.95;5.03;;;;;;;5.92;100.00;98988.25;2634081;28;20043;-83
2022/10/05 03:59:26;;;;;;;39.30;4.57;;;;;;;5.49;100.00;98990.84;2634402;28;20494;-86
2022/10/05 04:00:47;;;;;;;33.42;3.42;;;;;;;5.78;100.00;98988.28;2634170;28;20055;-83
2022/10/05 04:02:14;;;;;;;30.80;4.72;;;;;;;5.90;100.00;98991.75;2633914;28;20540;-84
2022/10/05 04:03:40;;;;;;;37.90;5.15;;;;;;;6.11;100.00;98987.44;2633016;28;20486;-88
2022/10/05 04:05:03;;;;;;;34.47;3.75;;;;;;;5.81;100.00;98990.03;2634593;28;20089;-84
2022/10/05 04:06:25;;;;;;;34.53;4.35;;;;;;;6.02;100.00;98993.50;2632637;28;20517;-84
2022/10/05 04:07:52;;;;;;;20.25;3.53;;;;;;;6.03;100.00;98993.50;2634011;28;20065;-84
2022/10/05 04:09:19;;;;;;;34.28;4.22;;;;;;;6.04;100.00;98999.56;2632743;28;20044;-84
2022/10/05 04:10:42;;;;;;;23.48;3.92;;;;;;;5.79;100.00;99003.00;2633174;28;20066;-84
2022/10/05 04:12:15;;;;;;;33.33;4.32;;;;;;;5.73;100.00;99000.41;2634899;28;20047;-85
2022/10/05 04:13:33;;;;;;;;;;;;;;;5.93;100.00;99004.75;2633170;28;20048;-84
2022/10/05 04:14:56;;;;;;;40.88;4.65;;;;;;;5.95;100.00;99000.41;2633505;28;19931;-84
2022/10/05 04:16:18;;;;;;;39.30;3.72;;;;;;;5.74;100.00;99006.47;2632445;28;20537;-85
2022/10/05 04:17:45;;;;;;;64.30;5.75;;;;;;;5.80;100.00;98996.94;2634809;28;20100;-84
2022/10/05 04:19:26;;;;;;;80.47;8.50;;;;;;;6.09;100.00;99008.25;2631586;28;20052;-84
2022/10/05 04:20:46;;;;;;;43.75;4.13;;;;;;;6.02;100.00;98998.69;2633152;28;20047;-83
2022/10/05 04:22:17;;;;;;;24.27;3.97;;;;;;;6.18;100.00;98996.97;2631627;28;20079;-85
2022/10/05 04:23:46;;;;;;;30.55;4.68;;;;;;;6.11;100.00;98987.44;2633385;28;20044;-83
2022/10/05 04:25:15;;;;;;;48.42;4.78;;;;;;;6.04;100.00;98990.03;2631978;28;20056;-85
2022/10/05 04:26:47;;;;;;;46.00;4.43;;;;;;;5.96;100.00;98989.13;2633815;28;20097;-85
2022/10/05 04:28:48;;;;;;;21.85;4.13;;;;;;;5.88;100.00;98990.91;2632413;28;20048;-86
2022/10/05 04:30:11;;;;;;;79.45;4.75;;;;;;;5.91;100.00;98985.69;2631500;28;20052;-84
2022/10/05 04:31:43;;;;;;;84.80;6.68;;;;;;;6.01;100.00;98992.66;2632235;28;20044;-86
2022/10/05 04:32:59;;;;;;;39.47;4.33;;;;;;;5.85;100.00;98981.34;2632565;28;20059;-85
2022/10/05 04:34:52;;;;;;;45.92;3.80;;;;;;;5.65;100.00;98983.94;2635405;28;20063;-85
2022/10/05 04:36:20;;;;;;;89.43;6.70;;;;;;;5.77;100.00;98983.06;2633992;28;20075;-84
2022/10/05 04:37:45;;;;;;;99.80;7.80;;;;;;;5.54;100.00;98980.47;2631622;28;20048;-84
2022/10/05 04:39:14;;;;;;;98.65;7.32;;;;;;;5.49;100.00;98978.75;2631142;28;20047;-89
2022/10/05 04:40:41;;;;;;;125.13;6.90;;;;;;;5.33;100.00;98972.66;2633716;28;20039;-85
2022/10/05 04:42:25;;;;;;;59.70;5.50;;;;;;;5.37;100.00;98968.31;2631914;28;20048;-87
2022/10/05 04:44:03;;;;;;;43.15;3.95;;;;;;;5.37;100.00;98963.13;2632217;28;20414;-84
2022/10/05 04:45:27;;;;;;;88.18;5.32;;;;;;;5.42;100.00;98961.41;2633938;28;20479;-84
2022/10/05 04:47:04;;;;;;;50.83;4.30;;;;;;;5.28;100.00;98961.41;2633126;28;20048;-84
2022/10/05 04:48:44;;;;;;;35.75;3.80;;;;;;;5.46;100.00;98963.16;2633442;28;20075;-86
2022/10/05 04:50:19;;;;;;;15.63;3.67;;;;;;;5.46;100.00;98960.56;2633360;28;20050;-84
2022/10/05 04:51:40;;;;;;;12.40;3.75;;;;;;;5.40;100.00;98965.72;2631978;28;20500;-84
2022/10/05 04:53:06;;;;;;;16.55;4.57;;;;;;;5.45;100.00;98966.63;2632077;28;20422;-84
2022/10/05 04:54:42;;;;;;;29.58;5.63;;;;;;;5.43;100.00;98959.69;2633176;28;20040;-84
2022/10/05 04:56:01;;;;;;;18.30;4.32;;;;;;;5.28;100.00;98968.31;2633306;28;21111;-87
2022/10/05 04:57:27;;;;;;;7.70;4.25;;;;;;;5.15;100.00;98960.47;2632367;28;20055;-85
2022/10/05 04:59:01;;;;;;;13.23;5.75;;;;;;;5.25;100.00;98968.31;2631794;28;20051;-85
2022/10/05 05:00:27;;;;;;;6.80;3.50;;;;;;;5.11;100.00;98976.91;2632741;28;20104;-84
2022/10/05 05:02:31;;;;;;;8.43;3.65;;;;;;;5.44;100.00;98962.25;2630711;28;20126;-85
2022/10/05 05:03:58;;;;;;;5.32;3.53;;;;;;;5.46;100.00;98970.06;2579997;28;21048;-84
2022/10/05 05:05:16;;;;;;;7.43;3.50;;;;;;;5.31;100.00;98973.53;2603647;28;20059;-87
2022/10/05 05:06:39;;;;;;;6.13;3.80;;;;;;;5.37;100.00;98968.31;2633854;28;20391;-84
2022/10/05 05:08:24;;;;;;;7.63;3.60;;;;;;;5.41;100.00;98964.88;2633000;28;20134;-84
2022/10/05 05:09:54;;;;;;;6.38;3.28;;;;;;;5.55;100.00;98964.91;2632706;28;20092;-83
2022/10/05 05:11:48;;;;;;;8.57;4.03;;;;;;;5.44;100.00;98964.84;2633669;28;20093;-83
2022/10/05 05:13:15;;;;;;;5.93;3.33;;;;;;;5.48;100.00;98964.03;2590151;28;20053;-85
2022/10/05 05:14:58;;;;;;;5.15;3.30;;;;;;;5.27;100.00;98972.66;2632165;28;20549;-85
2022/10/05 05:16:38;;;;;;;5.47;3.17;;;;;;;5.51;100.00;98969.22;2632732;28;20063;-85
2022/10/05 05:18:19;;;;;;;8.73;3.55;;;;;;;5.31;100.00;98981.31;2631955;28;20101;-84
2022/10/05 05:19:49;;;;;;;5.65;3.72;;;;;;;5.36;100.00;98980.44;2632598;28;20051;-82
2022/10/05 05:21:26;;;;;;;6.18;3.80;;;;;;;5.35;100.00;98975.25;2632365;28;20127;-85
2022/10/05 05:23:01;;;;;;;8.52;4.10;;;;;;;5.48;100.00;98978.72;2633027;28;20076;-86
2022/10/05 05:24:53;;;;;;;7.03;3.78;;;;;;;5.56;100.00;98979.59;2632297;28;20051;-85
2022/10/05 05:26:49;;;;;;;9.93;3.70;;;;;;;5.59;100.00;98977.00;2631579;28;20699;-85
2022/10/05 05:28:14;;;;;;;7.63;4.00;;;;;;;5.54;100.00;98980.47;2633199;28;20052;-83
2022/10/05 05:29:58;;;;;;;12.80;3.40;;;;;;;5.44;100.00;98975.25;2631872;28;20521;-84
2022/10/05 05:31:35;;;;;;;13.27;3.15;;;;;;;5.53;100.00;98979.63;2631888;28;20078;-84
2022/10/05 05:33:07;;;;;;;13.02;3.25;;;;;;;5.56;100.00;98965.75;2633039;28;20052;-88
2022/10/05 05:35:07;;;;;;;12.30;3.63;;;;;;;5.65;100.00;98976.16;2632051;28;20055;-85
2022/10/05 05:36:39;;;;;;;17.00;3.15;;;;;;;5.72;100.00;98979.63;2633723;28;20650;-85
2022/10/05 05:38:31;;;;;;;43.97;6.03;;;;;;;5.87;100.00;98973.56;2630570;28;20403;-85
2022/10/05 05:40:14;;;;;;;31.00;3.70;;;;;;;5.85;100.00;98975.28;2632992;28;20048;-84
2022/10/05 05:41:36;;;;;;;21.20;3.28;;;;;;;5.81;100.00;98979.63;2632710;28;20565;-84
2022/10/05 05:42:57;;;;;;;15.38;2.90;;;;;;;5.70;100.00;98971.81;2633339;28;20172;-83
2022/10/05 05:44:25;;;;;;;23.17;3.28;;;;;;;5.83;100.00;98974.41;2633372;28;20470;-83
2022/10/05 05:45:46;;;;;;;11.80;3.25;;;;;;;5.78;100.00;98974.41;2631247;28;20079;-83
2022/10/05 05:47:24;;;;;;;10.70;3.22;;;;;;;5.98;100.00;98970.97;2633602;28;20109;-84
2022/10/05 05:48:43;;;;;;;15.02;3.30;;;;;;;6.11;100.00;98977.91;2615776;28;20138;-83
2022/10/05 05:50:09;;;;;;;41.15;5.25;;;;;;;6.16;100.00;98970.09;2630633;28;20086;-85
2022/10/05 05:51:33;;;;;;;35.72;4.10;;;;;;;6.11;100.00;98969.22;2631998;28;20083;-85
2022/10/05 05:53:15;;;;;;;38.75;4.20;;;;;;;5.80;100.00;98976.16;2631512;28;20047;-84
2022/10/05 05:54:39;;;;;;;18.45;3.63;;;;;;;5.87;100.00;98969.22;2633931;28;20252;-85
2022/10/05 05:56:04;;;;;;;57.03;6.00;;;;;;;6.12;100.00;98973.56;2633078;28;20551;-85
2022/10/05 05:57:32;;;;;;;43.00;4.00;;;;;;;6.04;100.00;98971.84;2631459;28;20051;-83
2022/10/05 05:58:58;;;;;;;99.65;5.47;;;;;;;6.26;100.00;98974.41;2633065;28;20096;-84
2022/10/05 06:00:13;;;;;;;31.10;3.85;;;;;;;6.05;100.00;98978.78;2631533;28;20128;-85
2022/10/05 06:01:35;;;;;;;11.77;2.92;;;;;;;5.94;100.00;98986.56;2631600;28;20055;-85
2022/10/05 06:03:00;;;;;;;9.50;3.15;;;;;;;6.17;100.00;98980.47;2632097;28;20096;-84
2022/10/05 06:04:18;;;;;;;6.78;2.67;;;;;;;6.19;100.00;98980.50;2631406;28;20348;-85
2022/10/05 06:05:51;;;;;;;7.03;2.70;;;;;;;5.76;100.00;98987.41;2632897;28;20039;-83
2022/10/05 06:07:13;;;;;;;;;;;;;;;5.77;100.00;98975.28;2632464;28;20048;-83
2022/10/05 06:08:40;;;;;;;7.30;2.55;;;;;;;5.57;100.00;98978.75;2633659;28;20196;-83
2022/10/05 06:10:04;;;;;;;54.13;4.35;;;;;;;5.71;100.00;98980.47;2631885;28;20059;-89
2022/10/05 06:11:25;;;;;;;123.78;9.07;;;;;;;5.72;100.00;98982.22;2631603;28;20048;-83
2022/10/05 06:12:46;;;;;;;18.87;3.40;;;;;;;5.58;100.00;98977.00;2633481;28;20117;-84
2022/10/05 06:14:12;;;;;;;26.75;3.70;;;;;;;5.70;100.00;98978.75;2631611;28;20453;-83
2022/10/05 06:15:36;;;;;;;51.08;4.07;;;;;;;5.90;100.00;98974.41;2632085;28;20048;-84
2022/10/05 06:17:03;;;;;;;29.15;4.00;;;;;;;5.83;100.00;98977.91;2631314;28;20059;-85
2022/10/05 06:18:21;;;;;;;81.95;6.22;;;;;;;5.72;100.00;98979.63;2632701;28;20498;-83
2022/10/05 06:19:39;;;;;;;83.57;6.60;;;;;;;5.83;100.00;98983.09;2630699;28;20052;-84
2022/10/05 06:21:03;;;;;;;40.05;4.18;;;;;;;6.00;100.00;98990.00;2632767;28;20051;-83
2022/10/05 06:22:33;;;;;;;45.47;4.40;;;;;;;6.11;100.00;98997.81;2631094;28;20056;-83
2022/10/05 06:24:04;;;;;;;44.70;4.25;;;;;;;5.86;100.00;98992.59;2630790;28;20051;-84
2022/10/05 06:25:53;;;;;;;54.55;3.63;;;;;;;5.89;100.00;98990.03;2631182;28;20055;-85
2022/10/05 06:27:26;;;;;;;41.92;4.57;;;;;;;5.98;100.00;98990.00;2630753;28;20044;-84
2022/10/05 06:28:42;;;;;;;34.95;4.05;;;;;;;6.23;100.00;98987.41;2633061;28;20044;-83
2022/10/05 06:30:08;;;;;;;75.68;7.75;;;;;;;5.94;100.00;98991.75;2633258;28;20044;-85
2022/10/05 06:31:50;;;;;;;11.45;3.55;;;;;;;6.30;100.00;98989.16;2632434;28;20112;-84
2022/10/05 06:33:17;;;;;;;46.75;4.82;;;;;;;6.10;100.00;98985.69;2631137;28;20071;-84
2022/10/05 06:34:38;;;;;;;33.53;4.47;;;;;;;6.12;100.00;98989.16;2632153;28;20051;-82
2022/10/05 06:36:33;;;;;;;23.48;3.85;;;;;;;6.36;100.00;98990.88;2632431;28;20044;-83
2022/10/05 06:38:21;;;;;;;11.40;4.15;;;;;;;6.41;100.00;98990.84;2630616;28;20399;-84
2022/10/05 06:39:55;;;;;;;26.35;4.20;;;;;;;6.20;100.00;98988.28;2631361;28;20486;-85
2022/10/05 06:41:47;;;;;;;68.65;7.10;;;;;;;6.24;100.00;98991.75;2632210;28;20044;-85
2022/10/05 06:43:24;;;;;;;69.82;5.80;;;;;;;6.40;100.00;98991.72;2633317;28;20448;-82
2022/10/05 06:45:13;;;;;;;181.20;9.68;;;;;;;6.48;100.00;98997.78;2632572;28;20134;-85
2022/10/05 06:46:52;;;;;;;158.38;11.02;;;;;;;6.53;100.00;99001.22;2631391;28;20044;-84
2022/10/05 06:48:35;;;;;;;20.40;4.55;;;;;;;6.58;100.00;99003.81;2631700;28;20593;-85
2022/10/05 06:50:13;;;;;;;59.78;6.85;;;;;;;6.71;100.00;99002.06;2630812;28;20134;-83
2022/10/05 06:51:29;;;;;;;127.88;9.32;;;;;;;6.80;100.00;99004.59;2621256;28;20426;-84
2022/10/05 06:53:18;;;;;;;140.73;10.25;;;;;;;6.73;100.00;99010.72;2625009;28;20048;-85
2022/10/05 06:54:45;;;;;;;88.72;7.07;;;;;;;6.68;100.00;99012.44;2632518;28;20470;-84
2022/10/05 06:56:24;;;;;;;79.20;7.95;;;;;;;6.49;100.00;99018.56;2631760;28;20081;-83
2022/10/05 06:57:58;;;;;;;88.47;7.53;;;;;;;6.83;100.00;99019.34;2632068;28;20044;-84
2022/10/05 06:59:26;;;;;;;49.13;6.07;;;;;;;6.57;100.00;99018.56;2633153;28;20040;-83
2022/10/05 07:00:51;;;;;;;68.18;5.75;;;;;;;6.47;100.00;99011.66;2632131;28;20044;-83